sensor_id;sensor_type;location;lat;lon;timestamp;P1;durP1;ratioP1;P2;durP2;ratioP2
53309;SDS011;39197;53.200;5.792;2023-02-11T00:01:26;24.33;;;8.13;;
53309;SDS011;39197;53.200;5.792;2023-02-11T00:03:54;36.63;;;9.45;;
53309;SDS011;39197;53.200;5.792;2023-02-11T00:06:21;26.08;;;6.90;;
53309;SDS011;39197;53.200;5.792;2023-02-11T00:08:47;27.15;;;8.77;;
53309;SDS011;39197;53.200;5.792;2023-02-11T00:11:14;27.98;;;6.10;;
53309;SDS011;39197;53.200;5.792;2023-02-11T00:13:41;30.40;;;7.55;;
53309;SDS011;39197;53.200;5.792;2023-02-11T00:16:09;22.23;;;6.70;;
53309;SDS011;39197;53.200;5.792;2023-02-11T00:18:37;10.00;;;3.72;;
53309;SDS011;39197;53.200;5.792;2023-02-11T00:21:09;24.80;;;7.63;;
53309;SDS011;39197;53.200;5.792;2023-02-11T00:23:37;33.90;;;10.40;;
53309;SDS011;39197;53.200;5.792;2023-02-11T00:26:03;31.38;;;8.77;;
53309;SDS011;39197;53.200;5.792;2023-02-11T00:28:35;27.00;;;9.43;;
53309;SDS011;39197;53.200;5.792;2023-02-11T00:31:01;34.83;;;12.38;;
53309;SDS011;39197;53.200;5.792;2023-02-11T00:33:27;30.27;;;9.30;;
53309;SDS011;39197;53.200;5.792;2023-02-11T00:35:52;21.73;;;6.50;;
53309;SDS011;39197;53.200;5.792;2023-02-11T00:38:18;38.83;;;12.50;;
53309;SDS011;39197;53.200;5.792;2023-02-11T00:40:44;28.48;;;9.07;;
53309;SDS011;39197;53.200;5.792;2023-02-11T00:43:10;36.53;;;11.68;;
53309;SDS011;39197;53.200;5.792;2023-02-11T00:45:35;33.10;;;11.45;;
53309;SDS011;39197;53.200;5.792;2023-02-11T00:48:01;33.55;;;12.75;;
53309;SDS011;39197;53.200;5.792;2023-02-11T00:50:27;42.33;;;12.48;;
53309;SDS011;39197;53.200;5.792;2023-02-11T00:52:52;19.65;;;6.68;;
53309;SDS011;39197;53.200;5.792;2023-02-11T00:55:18;34.75;;;11.15;;
53309;SDS011;39197;53.200;5.792;2023-02-11T00:57:43;28.67;;;9.80;;
53309;SDS011;39197;53.200;5.792;2023-02-11T01:00:10;28.30;;;10.30;;
53309;SDS011;39197;53.200;5.792;2023-02-11T01:02:37;36.00;;;14.38;;
53309;SDS011;39197;53.200;5.792;2023-02-11T01:05:03;34.90;;;12.80;;
53309;SDS011;39197;53.200;5.792;2023-02-11T01:07:29;37.20;;;12.90;;
53309;SDS011;39197;53.200;5.792;2023-02-11T01:09:54;37.47;;;14.63;;
53309;SDS011;39197;53.200;5.792;2023-02-11T01:12:20;38.97;;;13.57;;
53309;SDS011;39197;53.200;5.792;2023-02-11T01:14:46;33.58;;;12.98;;
53309;SDS011;39197;53.200;5.792;2023-02-11T01:17:12;29.38;;;10.10;;
53309;SDS011;39197;53.200;5.792;2023-02-11T01:19:38;38.75;;;15.15;;
53309;SDS011;39197;53.200;5.792;2023-02-11T01:22:03;36.90;;;15.73;;
53309;SDS011;39197;53.200;5.792;2023-02-11T01:24:29;33.60;;;14.15;;
53309;SDS011;39197;53.200;5.792;2023-02-11T01:26:55;35.70;;;15.35;;
53309;SDS011;39197;53.200;5.792;2023-02-11T01:29:20;40.45;;;15.10;;
53309;SDS011;39197;53.200;5.792;2023-02-11T01:31:46;34.75;;;13.75;;
53309;SDS011;39197;53.200;5.792;2023-02-11T01:34:12;40.53;;;16.58;;
53309;SDS011;39197;53.200;5.792;2023-02-11T01:36:38;36.88;;;15.55;;
53309;SDS011;39197;53.200;5.792;2023-02-11T01:39:03;35.28;;;15.35;;
53309;SDS011;39197;53.200;5.792;2023-02-11T01:41:29;31.73;;;14.70;;
53309;SDS011;39197;53.200;5.792;2023-02-11T01:43:55;47.00;;;18.77;;
53309;SDS011;39197;53.200;5.792;2023-02-11T01:46:29;46.03;;;18.20;;
53309;SDS011;39197;53.200;5.792;2023-02-11T01:52:00;42.05;;;17.90;;
53309;SDS011;39197;53.200;5.792;2023-02-11T01:54:29;34.33;;;15.63;;
53309;SDS011;39197;53.200;5.792;2023-02-11T01:57:17;29.48;;;14.65;;
53309;SDS011;39197;53.200;5.792;2023-02-11T01:59:47;35.80;;;16.27;;
53309;SDS011;39197;53.200;5.792;2023-02-11T02:02:22;35.80;;;18.20;;
53309;SDS011;39197;53.200;5.792;2023-02-11T02:05:02;34.33;;;17.98;;
53309;SDS011;39197;53.200;5.792;2023-02-11T02:07:40;26.58;;;15.50;;
53309;SDS011;39197;53.200;5.792;2023-02-11T02:10:21;34.13;;;15.52;;
53309;SDS011;39197;53.200;5.792;2023-02-11T02:12:49;37.30;;;17.83;;
53309;SDS011;39197;53.200;5.792;2023-02-11T02:18:10;33.08;;;17.77;;
53309;SDS011;39197;53.200;5.792;2023-02-11T02:21:07;37.38;;;18.92;;
53309;SDS011;39197;53.200;5.792;2023-02-11T02:26:52;33.58;;;17.92;;
53309;SDS011;39197;53.200;5.792;2023-02-11T02:37:23;24.27;;;13.30;;
53309;SDS011;39197;53.200;5.792;2023-02-11T02:39:56;39.25;;;21.08;;
53309;SDS011;39197;53.200;5.792;2023-02-11T02:42:25;35.20;;;18.70;;
53309;SDS011;39197;53.200;5.792;2023-02-11T02:44:51;28.98;;;14.55;;
53309;SDS011;39197;53.200;5.792;2023-02-11T02:47:17;34.17;;;15.77;;
53309;SDS011;39197;53.200;5.792;2023-02-11T02:49:43;26.67;;;15.10;;
53309;SDS011;39197;53.200;5.792;2023-02-11T02:52:15;31.77;;;18.08;;
53309;SDS011;39197;53.200;5.792;2023-02-11T03:03:28;29.38;;;16.42;;
53309;SDS011;39197;53.200;5.792;2023-02-11T03:08:49;34.72;;;19.60;;
53309;SDS011;39197;53.200;5.792;2023-02-11T03:11:21;34.33;;;20.90;;
53309;SDS011;39197;53.200;5.792;2023-02-11T03:13:48;34.97;;;19.88;;
53309;SDS011;39197;53.200;5.792;2023-02-11T03:16:19;33.05;;;17.98;;
53309;SDS011;39197;53.200;5.792;2023-02-11T03:18:52;28.65;;;15.88;;
53309;SDS011;39197;53.200;5.792;2023-02-11T03:21:27;29.25;;;15.10;;
53309;SDS011;39197;53.200;5.792;2023-02-11T03:23:57;34.53;;;18.48;;
53309;SDS011;39197;53.200;5.792;2023-02-11T03:26:27;36.05;;;19.75;;
53309;SDS011;39197;53.200;5.792;2023-02-11T03:29:09;31.07;;;19.00;;
53309;SDS011;39197;53.200;5.792;2023-02-11T03:32:07;33.80;;;19.38;;
53309;SDS011;39197;53.200;5.792;2023-02-11T03:37:37;30.65;;;18.80;;
53309;SDS011;39197;53.200;5.792;2023-02-11T03:40:11;38.13;;;17.80;;
53309;SDS011;39197;53.200;5.792;2023-02-11T03:43:00;32.50;;;18.85;;
53309;SDS011;39197;53.200;5.792;2023-02-11T03:45:34;36.28;;;19.55;;
53309;SDS011;39197;53.200;5.792;2023-02-11T03:48:10;32.88;;;19.45;;
53309;SDS011;39197;53.200;5.792;2023-02-11T03:50:39;40.13;;;21.70;;
53309;SDS011;39197;53.200;5.792;2023-02-11T03:53:06;32.10;;;18.70;;
53309;SDS011;39197;53.200;5.792;2023-02-11T03:55:33;36.40;;;19.77;;
53309;SDS011;39197;53.200;5.792;2023-02-11T03:58:03;34.88;;;18.48;;
53309;SDS011;39197;53.200;5.792;2023-02-11T04:00:29;31.35;;;17.42;;
53309;SDS011;39197;53.200;5.792;2023-02-11T04:02:56;32.25;;;17.65;;
53309;SDS011;39197;53.200;5.792;2023-02-11T04:05:21;22.98;;;13.95;;
53309;SDS011;39197;53.200;5.792;2023-02-11T04:07:47;31.77;;;19.48;;
53309;SDS011;39197;53.200;5.792;2023-02-11T04:10:12;30.65;;;18.90;;
53309;SDS011;39197;53.200;5.792;2023-02-11T04:12:38;27.65;;;17.15;;
53309;SDS011;39197;53.200;5.792;2023-02-11T04:15:04;30.40;;;17.63;;
53309;SDS011;39197;53.200;5.792;2023-02-11T04:17:30;27.88;;;15.25;;
53309;SDS011;39197;53.200;5.792;2023-02-11T04:19:56;31.13;;;17.80;;
53309;SDS011;39197;53.200;5.792;2023-02-11T04:22:22;31.83;;;15.88;;
53309;SDS011;39197;53.200;5.792;2023-02-11T04:24:47;24.00;;;13.10;;
53309;SDS011;39197;53.200;5.792;2023-02-11T04:27:13;27.98;;;14.45;;
53309;SDS011;39197;53.200;5.792;2023-02-11T04:29:38;26.65;;;13.50;;
53309;SDS011;39197;53.200;5.792;2023-02-11T04:32:04;31.30;;;16.08;;
53309;SDS011;39197;53.200;5.792;2023-02-11T04:34:30;35.45;;;17.30;;
53309;SDS011;39197;53.200;5.792;2023-02-11T04:36:55;28.88;;;15.25;;
53309;SDS011;39197;53.200;5.792;2023-02-11T04:39:21;37.97;;;17.92;;
53309;SDS011;39197;53.200;5.792;2023-02-11T04:41:47;33.53;;;16.90;;
53309;SDS011;39197;53.200;5.792;2023-02-11T04:44:12;28.10;;;16.45;;
53309;SDS011;39197;53.200;5.792;2023-02-11T04:46:38;30.80;;;15.93;;
53309;SDS011;39197;53.200;5.792;2023-02-11T04:49:03;33.78;;;17.13;;
53309;SDS011;39197;53.200;5.792;2023-02-11T04:51:30;27.83;;;15.48;;
53309;SDS011;39197;53.200;5.792;2023-02-11T04:53:56;28.30;;;14.70;;
53309;SDS011;39197;53.200;5.792;2023-02-11T04:56:21;27.20;;;15.40;;
53309;SDS011;39197;53.200;5.792;2023-02-11T04:58:47;33.70;;;16.70;;
53309;SDS011;39197;53.200;5.792;2023-02-11T05:01:13;30.48;;;16.25;;
53309;SDS011;39197;53.200;5.792;2023-02-11T05:03:40;34.15;;;16.58;;
53309;SDS011;39197;53.200;5.792;2023-02-11T05:06:06;30.30;;;14.88;;
53309;SDS011;39197;53.200;5.792;2023-02-11T05:08:33;31.00;;;14.93;;
53309;SDS011;39197;53.200;5.792;2023-02-11T05:10:59;23.83;;;15.57;;
53309;SDS011;39197;53.200;5.792;2023-02-11T05:13:26;23.95;;;14.88;;
53309;SDS011;39197;53.200;5.792;2023-02-11T05:15:52;26.38;;;15.98;;
53309;SDS011;39197;53.200;5.792;2023-02-11T05:18:18;27.30;;;14.98;;
53309;SDS011;39197;53.200;5.792;2023-02-11T05:20:43;29.75;;;16.02;;
53309;SDS011;39197;53.200;5.792;2023-02-11T05:23:09;26.00;;;16.40;;
53309;SDS011;39197;53.200;5.792;2023-02-11T05:25:36;28.65;;;16.55;;
53309;SDS011;39197;53.200;5.792;2023-02-11T05:28:02;34.30;;;15.85;;
53309;SDS011;39197;53.200;5.792;2023-02-11T05:30:29;30.67;;;18.25;;
53309;SDS011;39197;53.200;5.792;2023-02-11T05:32:55;34.55;;;17.42;;
53309;SDS011;39197;53.200;5.792;2023-02-11T05:35:20;26.55;;;16.27;;
53309;SDS011;39197;53.200;5.792;2023-02-11T05:37:46;29.73;;;16.58;;
53309;SDS011;39197;53.200;5.792;2023-02-11T05:40:12;26.27;;;17.10;;
53309;SDS011;39197;53.200;5.792;2023-02-11T05:42:38;26.30;;;15.18;;
53309;SDS011;39197;53.200;5.792;2023-02-11T05:45:04;26.48;;;18.05;;
53309;SDS011;39197;53.200;5.792;2023-02-11T05:47:30;21.50;;;12.52;;
53309;SDS011;39197;53.200;5.792;2023-02-11T05:49:55;25.58;;;15.73;;
53309;SDS011;39197;53.200;5.792;2023-02-11T05:52:21;28.35;;;17.33;;
53309;SDS011;39197;53.200;5.792;2023-02-11T05:54:48;31.90;;;18.00;;
53309;SDS011;39197;53.200;5.792;2023-02-11T05:57:14;29.15;;;18.35;;
53309;SDS011;39197;53.200;5.792;2023-02-11T05:59:40;29.50;;;18.73;;
53309;SDS011;39197;53.200;5.792;2023-02-11T06:02:06;34.88;;;19.58;;
53309;SDS011;39197;53.200;5.792;2023-02-11T06:04:33;34.05;;;16.05;;
53309;SDS011;39197;53.200;5.792;2023-02-11T06:06:59;23.15;;;11.45;;
53309;SDS011;39197;53.200;5.792;2023-02-11T06:09:25;30.13;;;14.95;;
53309;SDS011;39197;53.200;5.792;2023-02-11T06:11:50;30.02;;;17.00;;
53309;SDS011;39197;53.200;5.792;2023-02-11T06:14:16;41.47;;;20.45;;
53309;SDS011;39197;53.200;5.792;2023-02-11T06:16:41;29.00;;;16.70;;
53309;SDS011;39197;53.200;5.792;2023-02-11T06:19:07;31.95;;;17.60;;
53309;SDS011;39197;53.200;5.792;2023-02-11T06:21:33;35.35;;;19.67;;
53309;SDS011;39197;53.200;5.792;2023-02-11T06:23:58;33.35;;;19.90;;
53309;SDS011;39197;53.200;5.792;2023-02-11T06:26:24;36.33;;;18.73;;
53309;SDS011;39197;53.200;5.792;2023-02-11T06:28:50;27.02;;;15.70;;
53309;SDS011;39197;53.200;5.792;2023-02-11T06:31:15;29.13;;;17.38;;
53309;SDS011;39197;53.200;5.792;2023-02-11T06:33:41;32.50;;;15.52;;
53309;SDS011;39197;53.200;5.792;2023-02-11T06:36:15;25.73;;;16.70;;
53309;SDS011;39197;53.200;5.792;2023-02-11T06:38:42;29.08;;;16.17;;
53309;SDS011;39197;53.200;5.792;2023-02-11T06:41:09;30.73;;;17.38;;
53309;SDS011;39197;53.200;5.792;2023-02-11T06:43:38;36.60;;;17.50;;
53309;SDS011;39197;53.200;5.792;2023-02-11T06:46:05;37.80;;;17.10;;
53309;SDS011;39197;53.200;5.792;2023-02-11T06:48:31;35.15;;;19.10;;
53309;SDS011;39197;53.200;5.792;2023-02-11T06:51:00;33.45;;;17.75;;
53309;SDS011;39197;53.200;5.792;2023-02-11T06:53:26;30.90;;;15.40;;
53309;SDS011;39197;53.200;5.792;2023-02-11T06:55:52;39.40;;;19.40;;
53309;SDS011;39197;53.200;5.792;2023-02-11T06:58:17;37.25;;;19.88;;
53309;SDS011;39197;53.200;5.792;2023-02-11T07:00:43;33.38;;;18.08;;
53309;SDS011;39197;53.200;5.792;2023-02-11T07:03:09;37.83;;;19.23;;
53309;SDS011;39197;53.200;5.792;2023-02-11T07:05:34;34.75;;;16.83;;
53309;SDS011;39197;53.200;5.792;2023-02-11T07:08:02;33.25;;;17.58;;
53309;SDS011;39197;53.200;5.792;2023-02-11T07:10:28;34.30;;;19.60;;
53309;SDS011;39197;53.200;5.792;2023-02-11T07:12:54;35.05;;;17.95;;
53309;SDS011;39197;53.200;5.792;2023-02-11T07:15:19;35.88;;;17.38;;
53309;SDS011;39197;53.200;5.792;2023-02-11T07:17:45;31.50;;;18.05;;
53309;SDS011;39197;53.200;5.792;2023-02-11T07:20:10;36.17;;;19.77;;
53309;SDS011;39197;53.200;5.792;2023-02-11T07:22:38;38.00;;;18.02;;
53309;SDS011;39197;53.200;5.792;2023-02-11T07:25:04;33.20;;;17.63;;
53309;SDS011;39197;53.200;5.792;2023-02-11T07:27:30;38.25;;;18.45;;
53309;SDS011;39197;53.200;5.792;2023-02-11T07:29:55;38.83;;;19.35;;
53309;SDS011;39197;53.200;5.792;2023-02-11T07:32:21;30.05;;;16.30;;
53309;SDS011;39197;53.200;5.792;2023-02-11T07:34:46;34.15;;;16.10;;
53309;SDS011;39197;53.200;5.792;2023-02-11T07:37:13;36.50;;;17.80;;
53309;SDS011;39197;53.200;5.792;2023-02-11T07:39:38;33.17;;;16.20;;
53309;SDS011;39197;53.200;5.792;2023-02-11T07:42:04;40.47;;;18.05;;
53309;SDS011;39197;53.200;5.792;2023-02-11T07:44:30;29.15;;;14.05;;
53309;SDS011;39197;53.200;5.792;2023-02-11T07:46:57;30.85;;;14.68;;
53309;SDS011;39197;53.200;5.792;2023-02-11T07:49:23;29.10;;;15.75;;
53309;SDS011;39197;53.200;5.792;2023-02-11T07:51:49;28.58;;;13.60;;
53309;SDS011;39197;53.200;5.792;2023-02-11T07:54:15;33.25;;;15.52;;
53309;SDS011;39197;53.200;5.792;2023-02-11T07:56:41;30.38;;;13.60;;
53309;SDS011;39197;53.200;5.792;2023-02-11T07:59:07;32.42;;;15.77;;
53309;SDS011;39197;53.200;5.792;2023-02-11T08:01:34;30.20;;;15.45;;
53309;SDS011;39197;53.200;5.792;2023-02-11T08:04:00;23.92;;;12.48;;
53309;SDS011;39197;53.200;5.792;2023-02-11T08:06:28;31.95;;;15.07;;
53309;SDS011;39197;53.200;5.792;2023-02-11T08:08:55;32.95;;;12.63;;
53309;SDS011;39197;53.200;5.792;2023-02-11T08:11:22;33.45;;;13.57;;
53309;SDS011;39197;53.200;5.792;2023-02-11T08:13:50;32.33;;;13.88;;
53309;SDS011;39197;53.200;5.792;2023-02-11T08:16:20;25.08;;;14.20;;
53309;SDS011;39197;53.200;5.792;2023-02-11T08:18:51;27.67;;;14.25;;
53309;SDS011;39197;53.200;5.792;2023-02-11T08:21:18;29.40;;;15.27;;
53309;SDS011;39197;53.200;5.792;2023-02-11T08:23:44;31.85;;;12.95;;
53309;SDS011;39197;53.200;5.792;2023-02-11T08:26:21;32.30;;;14.13;;
53309;SDS011;39197;53.200;5.792;2023-02-11T08:28:49;29.17;;;13.40;;
53309;SDS011;39197;53.200;5.792;2023-02-11T08:31:17;29.75;;;13.13;;
53309;SDS011;39197;53.200;5.792;2023-02-11T08:33:45;23.13;;;11.77;;
53309;SDS011;39197;53.200;5.792;2023-02-11T08:36:15;19.98;;;10.20;;
53309;SDS011;39197;53.200;5.792;2023-02-11T08:41:09;19.70;;;9.57;;
53309;SDS011;39197;53.200;5.792;2023-02-11T08:43:36;21.67;;;9.30;;
53309;SDS011;39197;53.200;5.792;2023-02-11T08:46:05;26.08;;;11.77;;
53309;SDS011;39197;53.200;5.792;2023-02-11T08:48:32;25.00;;;10.55;;
53309;SDS011;39197;53.200;5.792;2023-02-11T08:50:58;28.52;;;10.93;;
53309;SDS011;39197;53.200;5.792;2023-02-11T08:53:24;25.45;;;10.50;;
53309;SDS011;39197;53.200;5.792;2023-02-11T08:55:50;20.02;;;9.10;;
53309;SDS011;39197;53.200;5.792;2023-02-11T08:58:17;25.52;;;10.25;;
53309;SDS011;39197;53.200;5.792;2023-02-11T09:00:43;24.35;;;11.90;;
53309;SDS011;39197;53.200;5.792;2023-02-11T09:03:09;23.00;;;8.65;;
53309;SDS011;39197;53.200;5.792;2023-02-11T09:05:54;18.52;;;8.32;;
53309;SDS011;39197;53.200;5.792;2023-02-11T09:08:21;22.25;;;7.55;;
53309;SDS011;39197;53.200;5.792;2023-02-11T09:10:47;18.55;;;8.15;;
53309;SDS011;39197;53.200;5.792;2023-02-11T09:13:13;25.42;;;8.32;;
53309;SDS011;39197;53.200;5.792;2023-02-11T09:15:38;23.02;;;7.85;;
53309;SDS011;39197;53.200;5.792;2023-02-11T09:18:04;20.02;;;7.18;;
53309;SDS011;39197;53.200;5.792;2023-02-11T09:20:30;17.23;;;5.85;;
53309;SDS011;39197;53.200;5.792;2023-02-11T09:22:56;22.38;;;7.18;;
53309;SDS011;39197;53.200;5.792;2023-02-11T09:25:23;20.05;;;7.05;;
53309;SDS011;39197;53.200;5.792;2023-02-11T09:27:49;19.52;;;6.95;;
53309;SDS011;39197;53.200;5.792;2023-02-11T09:30:16;20.50;;;7.80;;
53309;SDS011;39197;53.200;5.792;2023-02-11T09:32:41;19.88;;;7.10;;
53309;SDS011;39197;53.200;5.792;2023-02-11T09:35:07;21.60;;;7.28;;
53309;SDS011;39197;53.200;5.792;2023-02-11T09:37:33;18.55;;;6.72;;
53309;SDS011;39197;53.200;5.792;2023-02-11T09:39:58;19.30;;;6.32;;
53309;SDS011;39197;53.200;5.792;2023-02-11T09:42:36;21.67;;;6.97;;
53309;SDS011;39197;53.200;5.792;2023-02-11T09:45:14;22.27;;;6.68;;
53309;SDS011;39197;53.200;5.792;2023-02-11T09:48:03;20.15;;;6.18;;
53309;SDS011;39197;53.200;5.792;2023-02-11T09:50:44;18.70;;;6.70;;
53309;SDS011;39197;53.200;5.792;2023-02-11T09:53:25;20.05;;;6.13;;
53309;SDS011;39197;53.200;5.792;2023-02-11T09:55:56;18.75;;;5.82;;
53309;SDS011;39197;53.200;5.792;2023-02-11T09:58:28;13.80;;;5.82;;
53309;SDS011;39197;53.200;5.792;2023-02-11T10:06:31;21.88;;;5.20;;
53309;SDS011;39197;53.200;5.792;2023-02-11T10:23:14;20.73;;;4.82;;
53309;SDS011;39197;53.200;5.792;2023-02-11T10:25:45;23.17;;;5.18;;
53309;SDS011;39197;53.200;5.792;2023-02-11T10:28:19;17.80;;;4.32;;
53309;SDS011;39197;53.200;5.792;2023-02-11T10:30:56;17.52;;;5.13;;
53309;SDS011;39197;53.200;5.792;2023-02-11T10:33:25;16.10;;;3.40;;
53309;SDS011;39197;53.200;5.792;2023-02-11T10:35:58;16.08;;;4.43;;
53309;SDS011;39197;53.200;5.792;2023-02-11T10:38:24;18.25;;;3.60;;
53309;SDS011;39197;53.200;5.792;2023-02-11T10:40:50;16.40;;;3.75;;
53309;SDS011;39197;53.200;5.792;2023-02-11T10:43:16;17.38;;;4.63;;
53309;SDS011;39197;53.200;5.792;2023-02-11T10:45:52;17.00;;;4.05;;
53309;SDS011;39197;53.200;5.792;2023-02-11T10:53:42;18.13;;;4.57;;
53309;SDS011;39197;53.200;5.792;2023-02-11T10:56:10;19.15;;;3.95;;
53309;SDS011;39197;53.200;5.792;2023-02-11T11:01:04;10.55;;;2.80;;
53309;SDS011;39197;53.200;5.792;2023-02-11T11:03:31;13.70;;;3.00;;
53309;SDS011;39197;53.200;5.792;2023-02-11T11:08:48;12.30;;;2.80;;
53309;SDS011;39197;53.200;5.792;2023-02-11T11:11:16;17.23;;;2.92;;
53309;SDS011;39197;53.200;5.792;2023-02-11T11:14:00;13.63;;;2.67;;
53309;SDS011;39197;53.200;5.792;2023-02-11T11:21:35;13.70;;;3.97;;
53309;SDS011;39197;53.200;5.792;2023-02-11T11:24:43;15.60;;;4.13;;
53309;SDS011;39197;53.200;5.792;2023-02-11T11:27:14;16.05;;;3.67;;
53309;SDS011;39197;53.200;5.792;2023-02-11T11:29:51;17.15;;;3.25;;
53309;SDS011;39197;53.200;5.792;2023-02-11T11:32:20;17.13;;;2.20;;
53309;SDS011;39197;53.200;5.792;2023-02-11T11:34:54;17.42;;;2.72;;
53309;SDS011;39197;53.200;5.792;2023-02-11T11:37:27;17.27;;;3.90;;
53309;SDS011;39197;53.200;5.792;2023-02-11T11:39:58;15.55;;;2.80;;
53309;SDS011;39197;53.200;5.792;2023-02-11T11:42:34;17.80;;;2.78;;
53309;SDS011;39197;53.200;5.792;2023-02-11T11:47:44;12.63;;;2.50;;
53309;SDS011;39197;53.200;5.792;2023-02-11T11:50:34;13.88;;;3.15;;
53309;SDS011;39197;53.200;5.792;2023-02-11T11:53:09;15.73;;;3.70;;
53309;SDS011;39197;53.200;5.792;2023-02-11T11:58:09;13.77;;;2.40;;
53309;SDS011;39197;53.200;5.792;2023-02-11T12:00:51;19.67;;;4.20;;
53309;SDS011;39197;53.200;5.792;2023-02-11T12:17:21;14.32;;;3.90;;
53309;SDS011;39197;53.200;5.792;2023-02-11T12:23:03;12.90;;;3.30;;
53309;SDS011;39197;53.200;5.792;2023-02-11T12:25:45;15.55;;;3.45;;
53309;SDS011;39197;53.200;5.792;2023-02-11T12:28:36;15.60;;;2.45;;
53309;SDS011;39197;53.200;5.792;2023-02-11T12:39:59;15.38;;;4.18;;
53309;SDS011;39197;53.200;5.792;2023-02-11T12:48:44;18.88;;;3.58;;
53309;SDS011;39197;53.200;5.792;2023-02-11T12:51:19;13.65;;;2.60;;
53309;SDS011;39197;53.200;5.792;2023-02-11T12:56:40;21.73;;;3.97;;
53309;SDS011;39197;53.200;5.792;2023-02-11T12:59:16;16.30;;;3.70;;
53309;SDS011;39197;53.200;5.792;2023-02-11T13:02:22;12.98;;;2.50;;
53309;SDS011;39197;53.200;5.792;2023-02-11T13:04:56;12.70;;;3.15;;
53309;SDS011;39197;53.200;5.792;2023-02-11T13:07:35;16.70;;;4.30;;
53309;SDS011;39197;53.200;5.792;2023-02-11T13:10:06;15.52;;;3.55;;
53309;SDS011;39197;53.200;5.792;2023-02-11T13:12:39;16.15;;;2.92;;
53309;SDS011;39197;53.200;5.792;2023-02-11T13:15:31;10.98;;;2.00;;
53309;SDS011;39197;53.200;5.792;2023-02-11T13:20:44;16.33;;;2.88;;
53309;SDS011;39197;53.200;5.792;2023-02-11T13:28:49;18.15;;;4.40;;
53309;SDS011;39197;53.200;5.792;2023-02-11T13:31:26;14.68;;;2.95;;
53309;SDS011;39197;53.200;5.792;2023-02-11T13:33:53;15.65;;;3.40;;
53309;SDS011;39197;53.200;5.792;2023-02-11T13:36:20;18.13;;;3.38;;
53309;SDS011;39197;53.200;5.792;2023-02-11T13:38:53;15.77;;;2.80;;
53309;SDS011;39197;53.200;5.792;2023-02-11T13:41:30;15.15;;;3.50;;
53309;SDS011;39197;53.200;5.792;2023-02-11T13:46:51;20.20;;;3.38;;
53309;SDS011;39197;53.200;5.792;2023-02-11T13:51:53;20.80;;;3.60;;
53309;SDS011;39197;53.200;5.792;2023-02-11T13:54:25;15.38;;;4.05;;
53309;SDS011;39197;53.200;5.792;2023-02-11T13:57:20;15.55;;;3.38;;
53309;SDS011;39197;53.200;5.792;2023-02-11T13:59:54;22.00;;;2.30;;
53309;SDS011;39197;53.200;5.792;2023-02-11T14:02:41;17.92;;;2.92;;
53309;SDS011;39197;53.200;5.792;2023-02-11T14:05:27;16.48;;;2.83;;
53309;SDS011;39197;53.200;5.792;2023-02-11T14:08:14;14.75;;;2.92;;
53309;SDS011;39197;53.200;5.792;2023-02-11T14:16:20;21.77;;;6.30;;
53309;SDS011;39197;53.200;5.792;2023-02-11T14:21:13;21.38;;;6.63;;
53309;SDS011;39197;53.200;5.792;2023-02-11T14:23:43;16.10;;;4.90;;
53309;SDS011;39197;53.200;5.792;2023-02-11T14:28:58;21.42;;;5.28;;
53309;SDS011;39197;53.200;5.792;2023-02-11T14:31:35;19.70;;;4.03;;
53309;SDS011;39197;53.200;5.792;2023-02-11T14:37:12;20.30;;;6.05;;
53309;SDS011;39197;53.200;5.792;2023-02-11T14:42:17;18.92;;;3.80;;
53309;SDS011;39197;53.200;5.792;2023-02-11T14:44:49;20.50;;;5.28;;
53309;SDS011;39197;53.200;5.792;2023-02-11T14:47:20;16.35;;;2.97;;
53309;SDS011;39197;53.200;5.792;2023-02-11T14:49:49;17.13;;;3.55;;
53309;SDS011;39197;53.200;5.792;2023-02-11T14:52:28;18.70;;;4.65;;
53309;SDS011;39197;53.200;5.792;2023-02-11T14:55:04;14.18;;;3.78;;
53309;SDS011;39197;53.200;5.792;2023-02-11T14:57:40;26.80;;;8.52;;
53309;SDS011;39197;53.200;5.792;2023-02-11T15:00:26;22.83;;;5.28;;
53309;SDS011;39197;53.200;5.792;2023-02-11T15:02:52;23.27;;;5.82;;
53309;SDS011;39197;53.200;5.792;2023-02-11T15:05:24;19.67;;;5.25;;
53309;SDS011;39197;53.200;5.792;2023-02-11T15:07:55;23.25;;;5.57;;
53309;SDS011;39197;53.200;5.792;2023-02-11T15:10:32;21.35;;;3.40;;
53309;SDS011;39197;53.200;5.792;2023-02-11T15:13:02;22.23;;;5.53;;
53309;SDS011;39197;53.200;5.792;2023-02-11T15:15:29;20.13;;;5.97;;
53309;SDS011;39197;53.200;5.792;2023-02-11T15:17:58;22.88;;;5.05;;
53309;SDS011;39197;53.200;5.792;2023-02-11T15:20:27;19.85;;;4.70;;
53309;SDS011;39197;53.200;5.792;2023-02-11T15:23:03;20.27;;;4.57;;
53309;SDS011;39197;53.200;5.792;2023-02-11T15:25:33;22.98;;;5.80;;
53309;SDS011;39197;53.200;5.792;2023-02-11T15:28:09;26.65;;;6.30;;
53309;SDS011;39197;53.200;5.792;2023-02-11T15:30:45;30.90;;;11.82;;
53309;SDS011;39197;53.200;5.792;2023-02-11T15:33:19;26.10;;;9.23;;
53309;SDS011;39197;53.200;5.792;2023-02-11T15:35:46;34.55;;;10.95;;
53309;SDS011;39197;53.200;5.792;2023-02-11T15:38:13;24.60;;;7.95;;
53309;SDS011;39197;53.200;5.792;2023-02-11T15:40:38;24.30;;;7.82;;
53309;SDS011;39197;53.200;5.792;2023-02-11T15:43:05;25.83;;;7.63;;
53309;SDS011;39197;53.200;5.792;2023-02-11T15:50:33;19.33;;;3.92;;
53309;SDS011;39197;53.200;5.792;2023-02-11T15:55:45;24.83;;;6.93;;
53309;SDS011;39197;53.200;5.792;2023-02-11T15:58:11;19.02;;;7.53;;
53309;SDS011;39197;53.200;5.792;2023-02-11T16:00:37;21.75;;;4.55;;
53309;SDS011;39197;53.200;5.792;2023-02-11T16:03:20;19.10;;;3.55;;
53309;SDS011;39197;53.200;5.792;2023-02-11T16:05:48;21.23;;;4.45;;
53309;SDS011;39197;53.200;5.792;2023-02-11T16:08:27;25.05;;;4.80;;
53309;SDS011;39197;53.200;5.792;2023-02-11T16:13:22;25.33;;;7.53;;
53309;SDS011;39197;53.200;5.792;2023-02-11T16:15:49;34.88;;;10.30;;
53309;SDS011;39197;53.200;5.792;2023-02-11T16:20:58;26.27;;;5.55;;
53309;SDS011;39197;53.200;5.792;2023-02-11T16:23:26;22.08;;;4.20;;
53309;SDS011;39197;53.200;5.792;2023-02-11T16:25:58;24.98;;;7.22;;
53309;SDS011;39197;53.200;5.792;2023-02-11T16:28:33;28.85;;;10.10;;
53309;SDS011;39197;53.200;5.792;2023-02-11T16:31:00;31.20;;;9.68;;
53309;SDS011;39197;53.200;5.792;2023-02-11T16:33:27;30.20;;;8.77;;
53309;SDS011;39197;53.200;5.792;2023-02-11T16:35:53;19.73;;;4.32;;
53309;SDS011;39197;53.200;5.792;2023-02-11T16:38:19;24.05;;;4.78;;
53309;SDS011;39197;53.200;5.792;2023-02-11T16:40:45;20.85;;;3.90;;
53309;SDS011;39197;53.200;5.792;2023-02-11T16:43:14;26.27;;;4.90;;
53309;SDS011;39197;53.200;5.792;2023-02-11T16:45:42;26.35;;;7.57;;
53309;SDS011;39197;53.200;5.792;2023-02-11T16:48:08;27.77;;;6.75;;
53309;SDS011;39197;53.200;5.792;2023-02-11T16:50:36;26.17;;;7.47;;
53309;SDS011;39197;53.200;5.792;2023-02-11T16:53:01;21.88;;;4.03;;
53309;SDS011;39197;53.200;5.792;2023-02-11T16:55:31;21.33;;;4.55;;
53309;SDS011;39197;53.200;5.792;2023-02-11T16:57:58;21.63;;;5.32;;
53309;SDS011;39197;53.200;5.792;2023-02-11T17:00:23;23.80;;;4.60;;
53309;SDS011;39197;53.200;5.792;2023-02-11T17:02:49;25.40;;;6.13;;
53309;SDS011;39197;53.200;5.792;2023-02-11T17:05:16;20.83;;;4.93;;
53309;SDS011;39197;53.200;5.792;2023-02-11T17:07:44;29.17;;;6.60;;
53309;SDS011;39197;53.200;5.792;2023-02-11T17:10:14;22.20;;;4.25;;
53309;SDS011;39197;53.200;5.792;2023-02-11T17:12:41;26.08;;;6.40;;
53309;SDS011;39197;53.200;5.792;2023-02-11T17:15:07;19.45;;;3.47;;